Time;durP1;ratioP1;P1;durP2;ratioP2;P2;SDS_P1;SDS_P2;PMS_P1;PMS_P2;Temp;Humidity;BMP_temperature;BMP_pressure;BME280_temperature;BME280_humidity;BME280_pressure;Samples;Min_cycle;Max_cycle;Signal;HPM_P1;HPM_P2
2022/01/12 00:02:12;;;;;;;;;;;;;;;-1.99;92.57;97652.06;5074361;28;20472;-69
2022/01/12 00:04:38;;;;;;;17.08;8.05;;;;;;;-1.97;92.35;97654.50;5073369;28;20410;-69
2022/01/12 00:07:05;;;;;;;17.55;8.48;;;;;;;-2.00;92.45;97660.72;5073561;28;20353;-69
2022/01/12 00:09:30;;;;;;;17.40;8.57;;;;;;;-2.02;92.50;97657.44;5073017;28;20040;-69
2022/01/12 00:11:56;;;;;;;20.02;9.10;;;;;;;-2.06;93.03;97655.22;5073621;28;20052;-69
2022/01/12 00:14:21;;;;;;;21.65;8.88;;;;;;;-2.06;93.26;97655.22;5073219;28;20437;-70
2022/01/12 00:16:48;;;;;;;19.58;9.30;;;;;;;-2.06;93.13;97658.63;5073087;28;20105;-71
2022/01/12 00:19:16;;;;;;;22.17;9.80;;;;;;;-2.08;93.85;97657.94;5073080;28;20408;-73
2022/01/12 00:21:42;;;;;;;;;;;;;;;-2.11;93.59;97664.13;5073539;28;20091;-70
2022/01/12 00:24:09;;;;;;;19.98;8.60;;;;;;;-2.12;93.67;97661.69;5073089;28;19924;-69
2022/01/12 00:33:05;;;;;;;18.85;9.23;;;;;;;-2.12;93.33;97672.00;5073600;28;20044;-70
2022/01/12 00:34:51;;;;;;;21.17;10.00;;;;;;;-2.13;94.45;97667.78;5072958;28;20775;-70
2022/01/12 00:37:17;;;;;;;19.98;9.60;;;;;;;-2.15;93.89;97649.88;5072400;28;20131;-69
2022/01/12 00:39:46;;;;;;;22.67;10.23;;;;;;;-2.13;94.70;97660.88;5073081;28;20041;-69
2022/01/12 00:42:13;;;;;;;26.05;9.35;;;;;;;-2.23;95.11;97661.72;5072525;28;20044;-69
2022/01/12 00:44:44;;;;;;;21.33;10.43;;;;;;;-2.27;95.47;97655.16;5072627;28;20520;-69
2022/01/12 00:47:13;;;;;;;22.88;10.68;;;;;;;-2.20;94.87;97658.91;5073073;28;20096;-69
2022/01/12 00:49:38;;;;;;;22.25;10.02;;;;;;;-2.15;94.96;97657.59;5072728;28;20055;-69
2022/01/12 00:52:07;;;;;;;21.75;9.60;;;;;;;-2.19;94.78;97658.78;5072806;28;20040;-68
2022/01/12 00:54:35;;;;;;;22.58;9.82;;;;;;;-2.17;94.89;97664.63;5072496;28;20098;-68
2022/01/12 00:57:02;;;;;;;21.23;9.35;;;;;;;-2.18;94.68;97667.31;5072220;28;20041;-69
2022/01/12 00:59:27;;;;;;;23.55;10.13;;;;;;;-2.22;94.70;97665.91;5073458;28;20131;-69
2022/01/12 01:01:56;;;;;;;23.42;11.73;;;;;;;-2.24;94.90;97672.97;5072393;28;20072;-69
2022/01/12 01:04:21;;;;;;;19.38;8.95;;;;;;;-2.23;94.98;97662.53;5072263;28;20048;-69
2022/01/12 01:06:47;;;;;;;23.10;10.70;;;;;;;-2.28;95.05;97672.38;5070692;28;20148;-69
2022/01/12 01:09:13;;;;;;;21.75;9.90;;;;;;;-2.34;94.85;97667.69;5072065;28;20047;-69
2022/01/12 01:11:38;;;;;;;24.75;11.88;;;;;;;-2.34;95.53;97677.19;5072186;28;20414;-68
2022/01/12 01:14:16;;;;;;;25.38;10.85;;;;;;;-2.32;95.31;97690.78;5072267;28;20072;-67
2022/01/12 01:27:24;;;;;;;23.42;11.25;;;;;;;-2.35;95.72;97701.34;5072244;28;20047;-68
2022/01/12 01:29:53;;;;;;;23.38;11.20;;;;;;;-2.34;95.50;97700.38;5072017;28;20041;-68
2022/01/12 01:32:19;;;;;;;21.42;10.55;;;;;;;-2.29;94.85;97701.66;5071859;28;20132;-67
2022/01/12 01:34:47;;;;;;;23.30;11.00;;;;;;;-2.33;95.59;97696.88;5072216;28;20124;-67
2022/01/12 01:37:13;;;;;;;21.80;9.07;;;;;;;-2.26;95.20;97698.03;5076289;28;20055;-67
2022/01/12 01:39:39;;;;;;;25.77;11.80;;;;;;;-2.27;95.38;97698.97;5083378;28;20044;-67
2022/01/12 01:42:16;;;;;;;24.25;11.80;;;;;;;-2.22;95.53;97710.56;5084483;28;20135;-67
2022/01/12 01:55:27;;;;;;;19.60;9.38;;;;;;;-2.05;94.23;97709.25;5072022;28;20086;-67
2022/01/12 01:57:53;;;;;;;22.90;11.85;;;;;;;-2.09;94.36;97702.72;5072106;28;20048;-67
2022/01/12 02:00:23;;;;;;;21.80;9.70;;;;;;;-2.00;93.90;97711.47;5092563;22;20116;-66
2022/01/12 02:02:52;;;;;;;20.45;10.10;;;;;;;-1.81;93.69;97711.66;5071513;28;20045;-66
2022/01/12 02:05:18;;;;;;;25.55;10.45;;;;;;;-1.85;93.47;97711.06;5070755;28;20040;-66
2022/01/12 02:07:43;;;;;;;21.45;10.50;;;;;;;-1.85;93.36;97705.91;5070620;28;20120;-66
2022/01/12 02:10:09;;;;;;;20.55;9.98;;;;;;;-1.78;93.21;97702.84;5070401;28;20036;-66
2022/01/12 02:12:38;;;;;;;21.65;9.95;;;;;;;-1.92;92.98;97704.78;5070510;28;20091;-65
2022/01/12 02:15:14;;;;;;;21.77;10.30;;;;;;;-1.73;92.65;97708.47;5070356;28;20037;-65
2022/01/12 02:17:53;;;;;;;22.02;9.90;;;;;;;-1.66;92.33;97709.63;5070432;28;20404;-65
2022/01/12 02:37:15;;;;;;;20.92;10.32;;;;;;;-1.50;91.89;97712.63;5070884;28;20128;-66
2022/01/12 02:39:57;;;;;;;25.30;10.25;;;;;;;-1.57;91.21;97716.63;5070558;28;20033;-65
2022/01/12 02:42:24;;;;;;;24.90;10.15;;;;;;;-1.59;91.98;97715.94;5070520;28;20044;-65
2022/01/12 02:56:05;;;;;;;23.42;10.90;;;;;;;-1.91;93.79;97719.31;5011844;28;20042;-67
2022/01/12 02:58:33;;;;;;;21.25;9.85;;;;;;;-1.92;93.10;97716.84;5062290;28;20052;-67
2022/01/12 03:03:45;;;;;;;20.77;9.15;;;;;;;-1.62;93.04;97727.31;5073778;28;20562;-65
2022/01/12 03:06:17;;;;;;;23.10;10.77;;;;;;;-1.80;93.08;97727.97;5073857;28;20047;-65
2022/01/12 03:08:45;;;;;;;23.95;9.85;;;;;;;-1.68;93.03;97732.13;5074200;28;20528;-65
2022/01/12 03:11:14;;;;;;;20.73;10.00;;;;;;;-1.71;93.27;97724.66;5074125;28;20102;-66
2022/01/12 03:13:41;;;;;;;23.08;11.05;;;;;;;-1.61;92.74;97735.88;5073679;28;20440;-66
2022/01/12 03:16:14;;;;;;;22.70;10.18;;;;;;;-1.59;92.69;97731.41;5071907;28;20075;-66
2022/01/12 03:18:41;;;;;;;24.10;11.27;;;;;;;-1.59;92.91;97723.69;5073931;28;20036;-66
2022/01/12 03:21:07;;;;;;;22.33;10.05;;;;;;;-1.63;92.79;97724.84;5074116;28;20085;-66
2022/01/12 03:23:33;;;;;;;23.27;10.20;;;;;;;-1.73;92.17;97713.63;5074081;28;20052;-66
2022/01/12 03:25:59;;;;;;;19.98;9.25;;;;;;;-1.74;93.14;97723.13;5073371;28;20036;-66
2022/01/12 03:28:26;;;;;;;23.95;10.55;;;;;;;-1.63;92.12;97717.13;5073443;28;20184;-65
2022/01/12 03:30:58;;;;;;;22.65;10.70;;;;;;;-1.71;93.33;97707.41;5073444;28;20542;-65
2022/01/12 03:33:49;;;;;;;21.80;9.68;;;;;;;-1.81;93.42;97726.31;5073437;28;20128;-65
2022/01/12 03:39:06;;;;;;;21.30;9.95;;;;;;;-1.68;93.21;97719.25;5071556;28;20131;-65
2022/01/12 03:41:35;;;;;;;21.08;10.13;;;;;;;-1.78;92.95;97732.03;5073363;28;20127;-65
2022/01/12 03:44:04;;;;;;;21.23;10.00;;;;;;;-1.70;93.25;97740.00;5072724;28;20044;-66
2022/01/12 03:46:35;;;;;;;24.70;11.20;;;;;;;-1.73;93.63;97747.16;5071244;28;20071;-66
2022/01/12 03:49:01;;;;;;;25.20;11.35;;;;;;;-1.86;93.51;97730.06;5071425;28;20127;-66
2022/01/12 03:51:27;;;;;;;27.58;11.68;;;;;;;-1.82;93.62;97725.50;5072393;28;20104;-65
2022/01/12 03:53:53;;;;;;;26.77;12.18;;;;;;;-1.72;92.96;97726.44;5073661;28;20040;-65
2022/01/12 03:56:18;;;;;;;22.30;10.40;;;;;;;-1.75;93.13;97731.00;5072955;28;20036;-66
2022/01/12 03:58:46;;;;;;;20.70;10.43;;;;;;;-1.86;94.20;97730.06;5072415;28;20041;-66
2022/01/12 04:01:15;;;;;;;25.98;12.63;;;;;;;-1.92;94.10;97716.84;5072969;28;20221;-67
2022/01/12 04:03:45;;;;;;;28.50;11.82;;;;;;;-2.00;95.24;97722.59;5072954;28;20044;-66
2022/01/12 04:08:55;;;;;;;24.02;11.20;;;;;;;-1.99;94.97;97721.69;5072375;28;20050;-64
2022/01/12 04:11:21;;;;;;;24.05;11.20;;;;;;;-2.09;94.64;97728.50;5072587;28;20044;-65
2022/01/12 04:13:48;;;;;;;24.60;10.88;;;;;;;-1.89;94.46;97730.31;5070990;28;20464;-65
2022/01/12 04:16:16;;;;;;;27.60;12.95;;;;;;;-2.01;94.46;97715.81;5072012;28;20036;-65
2022/01/12 04:18:42;;;;;;;28.73;12.30;;;;;;;-1.99;94.65;97719.09;5071982;28;20040;-65
2022/01/12 04:21:09;;;;;;;24.65;11.38;;;;;;;-1.99;94.78;97726.00;5072115;28;20043;-65
2022/01/12 04:23:36;;;;;;;23.73;11.63;;;;;;;-2.02;95.15;97727.06;5070953;28;20163;-65
2022/01/12 04:26:08;;;;;;;24.75;11.60;;;;;;;-2.06;95.64;97728.22;5070677;28;20041;-65
2022/01/12 04:28:36;;;;;;;26.90;12.43;;;;;;;-2.06;95.82;97742.88;5073111;28;20047;-65
2022/01/12 04:31:01;;;;;;;29.73;13.77;;;;;;;-2.08;95.42;97737.84;5072035;28;20045;-65
2022/01/12 04:33:30;;;;;;;23.38;10.98;;;;;;;-1.88;94.73;97747.44;5072220;28;20287;-65
2022/01/12 04:35:56;;;;;;;23.95;11.45;;;;;;;-2.01;94.08;97740.78;5071603;28;20036;-66
2022/01/12 04:38:24;;;;;;;23.45;11.15;;;;;;;-1.74;93.95;97753.25;5071725;28;20037;-65
2022/01/12 04:40:51;;;;;;;24.10;11.32;;;;;;;-1.88;94.22;97760.34;5071865;28;20044;-65
2022/01/12 04:43:17;;;;;;;24.60;10.77;;;;;;;-1.98;94.12;97759.41;5071792;28;20085;-65
2022/01/12 04:50:44;;;;;;;26.40;11.95;;;;;;;-2.06;94.77;97766.09;5071734;28;20416;-66
2022/01/12 04:53:10;;;;;;;;;;;;;;;-1.94;94.29;97758.25;5072084;28;20045;-65
2022/01/12 04:55:36;;;;;;;28.42;11.70;;;;;;;-2.08;93.87;97779.09;5071044;28;20019;-65
2022/01/12 04:58:02;;;;;;;24.58;10.27;;;;;;;-2.06;93.87;97777.22;5072351;28;20063;-65
2022/01/12 05:00:30;;;;;;;24.30;11.43;;;;;;;-1.97;94.46;97766.19;5071085;28;20040;-66
2022/01/12 05:13:39;;;;;;;25.48;10.45;;;;;;;-1.85;93.57;97757.50;5071734;28;20074;-65
2022/01/12 05:16:05;;;;;;;22.38;10.65;;;;;;;-1.98;93.72;97758.59;5072691;28;20109;-67
2022/01/12 05:18:33;;;;;;;24.75;11.60;;;;;;;-1.96;93.72;97754.94;5072633;28;20098;-66
2022/01/12 05:21:00;;;;;;;23.30;10.82;;;;;;;-2.10;93.94;97757.75;5070962;28;20101;-67
2022/01/12 05:23:27;;;;;;;26.23;11.05;;;;;;;-1.98;94.66;97766.34;5071173;28;20051;-66
2022/01/12 05:25:53;;;;;;;26.23;11.70;;;;;;;-2.05;94.00;97765.16;5072262;28;20048;-66
2022/01/12 05:28:19;;;;;;;26.58;12.50;;;;;;;-1.91;94.17;97773.47;5072704;28;20275;-65
2022/01/12 05:30:45;;;;;;;22.48;10.80;;;;;;;-1.80;93.37;97779.53;5071280;28;20075;-65
2022/01/12 05:33:11;;;;;;;25.73;10.75;;;;;;;-1.78;92.67;97782.81;5072045;28;20466;-66
2022/01/12 05:35:37;;;;;;;23.85;10.88;;;;;;;-1.88;93.14;97793.88;5071621;28;20448;-66
2022/01/12 05:38:04;;;;;;;23.38;10.98;;;;;;;-1.99;93.00;97801.63;5071949;28;20051;-66
2022/01/12 05:40:31;;;;;;;25.75;10.45;;;;;;;-1.98;92.75;97808.41;5072784;28;20045;-67
2022/01/12 05:43:00;;;;;;;25.42;10.90;;;;;;;-1.93;93.01;97816.63;5072868;28;20505;-66
2022/01/12 05:45:26;;;;;;;23.92;12.10;;;;;;;-2.03;93.13;97835.47;5074382;28;20041;-66
2022/01/12 05:50:20;;;;;;;24.60;11.02;;;;;;;-1.95;93.08;97826.22;5071893;28;20440;-66
2022/01/12 05:52:45;;;;;;;;;;;;;;;-1.99;92.20;97826.56;5072390;28;20492;-66
2022/01/12 05:55:12;;;;;;;23.48;10.43;;;;;;;-1.98;92.55;97834.19;5071878;28;19924;-66
2022/01/12 05:57:39;;;;;;;24.25;10.90;;;;;;;-2.01;92.84;97837.00;5072120;28;20445;-66
2022/01/12 06:00:08;;;;;;;25.65;11.70;;;;;;;-1.92;93.23;97830.31;5071586;28;20051;-66
2022/01/12 06:02:34;;;;;;;24.15;10.60;;;;;;;-1.97;92.37;97835.00;5070508;28;20147;-65
2022/01/12 06:05:00;;;;;;;22.90;10.35;;;;;;;-1.94;92.04;97840.75;5072119;28;20036;-65
2022/01/12 06:07:26;;;;;;;26.05;11.35;;;;;;;-1.95;92.10;97843.44;5071852;28;20192;-66
2022/01/12 06:09:51;;;;;;;25.45;11.18;;;;;;;-1.84;91.86;97840.84;5071697;28;20036;-65
2022/01/12 06:12:18;;;;;;;25.45;10.93;;;;;;;-1.78;92.08;97836.97;5071786;28;20059;-66
2022/01/12 06:14:45;;;;;;;23.33;10.35;;;;;;;-1.95;90.65;97839.09;5070378;28;20041;-66
2022/01/12 06:17:11;;;;;;;26.70;11.80;;;;;;;-1.90;92.32;97831.84;5070577;28;20079;-66
2022/01/12 06:19:37;;;;;;;24.10;11.30;;;;;;;-1.83;91.49;97841.66;5071635;28;20403;-66
2022/01/12 06:22:03;;;;;;;28.92;11.45;;;;;;;-1.92;92.06;97843.22;5071806;28;20075;-66
2022/01/12 06:24:29;;;;;;;24.35;11.35;;;;;;;-1.90;90.36;97841.34;5072060;28;20104;-66
2022/01/12 06:26:55;;;;;;;22.73;8.82;;;;;;;-1.85;88.93;97852.94;5072579;28;20037;-66
2022/01/12 06:31:50;;;;;;;23.10;10.30;;;;;;;-1.87;90.19;97849.66;5076409;28;20076;-66
2022/01/12 06:34:18;;;;;;;20.02;8.38;;;;;;;-1.97;89.55;97847.91;5076534;28;20052;-66
2022/01/12 06:36:46;;;;;;;;;;;;;;;-2.00;89.56;97856.69;5076682;28;20547;-66
2022/01/12 06:39:17;;;;;;;;;;;;;;;-1.95;89.82;97859.72;5074998;28;19920;-66
2022/01/12 06:41:44;;;;;;;18.67;7.97;;;;;;;-1.99;88.91;97853.19;5075992;28;19921;-67
2022/01/12 06:44:16;;;;;;;22.27;10.02;;;;;;;-1.96;88.83;97858.09;5075834;28;20068;-66
2022/01/12 06:46:42;;;;;;;20.83;9.73;;;;;;;-1.97;89.18;97851.31;5074728;28;20044;-66
2022/01/12 06:49:11;;;;;;;23.30;10.60;;;;;;;-2.03;89.27;97861.28;5075554;28;20067;-66
2022/01/12 06:51:36;;;;;;;26.52;11.32;;;;;;;-2.09;90.49;97867.72;5075416;28;20048;-66
2022/01/12 06:54:03;;;;;;;21.13;8.75;;;;;;;-2.12;88.75;97878.25;5075327;28;20041;-66
2022/01/12 06:56:28;;;;;;;20.73;8.85;;;;;;;-2.08;87.41;97878.84;5074985;28;20044;-67
2022/01/12 06:58:56;;;;;;;15.13;6.82;;;;;;;-1.93;86.45;97888.81;5073768;28;20040;-65
2022/01/12 07:01:21;;;;;;;19.38;9.20;;;;;;;-1.97;86.37;97897.72;5075555;28;20040;-66
2022/01/12 07:03:49;;;;;;;21.10;8.75;;;;;;;-1.80;86.44;97893.03;5074969;28;20093;-66
2022/01/12 07:06:18;;;;;;;21.57;9.60;;;;;;;-1.95;86.66;97895.84;5074370;28;20511;-66
2022/01/12 07:08:43;;;;;;;23.38;10.63;;;;;;;-2.00;86.96;97897.94;5074962;28;20051;-66
2022/01/12 07:11:09;;;;;;;23.35;11.07;;;;;;;-1.89;88.03;97879.91;5075218;28;20052;-66
2022/01/12 07:13:37;;;;;;;23.15;10.85;;;;;;;-1.78;87.70;97898.91;5075086;28;20064;-66
2022/01/12 07:16:03;;;;;;;;;;;;;;;-1.80;86.78;97900.78;5073543;28;20044;-65
2022/01/12 07:18:29;;;;;;;20.50;7.25;;;;;;;-2.02;85.81;97899.81;5074569;28;19920;-67
2022/01/12 07:20:55;;;;;;;21.42;9.27;;;;;;;-1.99;86.63;97909.06;5090576;28;20494;-66
2022/01/12 07:23:22;;;;;;;19.02;9.18;;;;;;;-1.96;86.50;97908.84;5074746;28;20036;-66
2022/01/12 07:25:51;;;;;;;21.77;8.73;;;;;;;-1.89;85.77;97907.44;5073092;28;20048;-66
2022/01/12 07:28:17;;;;;;;21.95;9.30;;;;;;;-1.90;85.70;97914.38;5074299;28;20050;-66
2022/01/12 07:30:42;;;;;;;20.52;9.30;;;;;;;-1.76;85.04;97909.94;5074548;28;20037;-67
2022/01/12 07:33:11;;;;;;;20.35;8.95;;;;;;;-1.86;85.65;97927.84;5089925;28;20040;-66
2022/01/12 07:35:36;;;;;;;;;;;;;;;-2.00;85.44;97923.72;5074899;28;20389;-66
2022/01/12 07:38:04;;;;;;;23.92;9.63;;;;;;;-1.93;86.35;97927.50;5074561;28;19970;-67
2022/01/12 07:40:33;;;;;;;20.20;8.70;;;;;;;-1.95;85.55;97936.28;5074824;28;20047;-66
2022/01/12 07:42:59;;;;;;;21.67;8.70;;;;;;;-1.99;85.41;97935.72;5075624;28;20040;-65
2022/01/12 07:45:25;;;;;;;20.92;10.20;;;;;;;-2.07;85.76;97938.03;5074397;28;20037;-66
2022/01/12 07:47:51;;;;;;;23.27;9.98;;;;;;;-1.89;85.47;97943.56;5074097;28;20053;-66
2022/01/12 07:50:16;;;;;;;21.85;9.13;;;;;;;-1.90;85.42;97940.16;5073620;28;20041;-67
2022/01/12 07:52:42;;;;;;;23.45;10.38;;;;;;;-1.91;86.57;97938.50;5074253;28;20046;-66
2022/01/12 07:55:08;;;;;;;20.85;9.52;;;;;;;-1.81;86.64;97937.84;5073719;28;20033;-66
2022/01/12 07:57:36;;;;;;;23.30;9.88;;;;;;;-1.81;86.87;97937.84;5074263;28;20326;-66
2022/01/12 08:00:03;;;;;;;27.87;11.20;;;;;;;-1.75;86.11;97929.63;5074200;28;20455;-67
2022/01/12 08:02:29;;;;;;;22.63;9.77;;;;;;;-1.72;85.10;97931.97;5072846;28;20479;-67
2022/01/12 08:04:55;;;;;;;22.27;9.13;;;;;;;-1.69;84.96;97931.75;5074277;28;20060;-67
2022/01/12 08:07:20;;;;;;;22.25;9.70;;;;;;;-1.53;84.73;97936.56;5072422;28;20408;-66
2022/01/12 08:09:48;;;;;;;21.48;9.40;;;;;;;-1.49;84.51;97937.97;5073334;28;20060;-67
2022/01/12 08:12:14;;;;;;;21.70;9.63;;;;;;;-1.43;83.95;97953.78;5074130;28;20067;-67
2022/01/12 08:14:41;;;;;;;18.77;9.02;;;;;;;-1.77;84.38;97962.47;5073552;28;20493;-66
2022/01/12 08:17:09;;;;;;;19.45;8.63;;;;;;;-1.65;84.66;97953.78;5072579;28;20520;-68
2022/01/12 08:19:38;;;;;;;22.42;10.18;;;;;;;-1.75;84.51;97961.41;5073828;28;20103;-68
2022/01/12 08:22:04;;;;;;;22.40;8.98;;;;;;;-1.56;83.84;97960.00;5073911;28;20040;-66
2022/01/12 08:24:30;;;;;;;19.67;8.80;;;;;;;-1.56;83.98;97958.25;5071973;28;20053;-66
2022/01/12 08:26:58;;;;;;;19.08;8.77;;;;;;;-1.66;83.55;97957.31;5073107;28;20040;-67
2022/01/12 08:29:26;;;;;;;17.67;7.82;;;;;;;-1.55;83.01;97954.75;5073076;28;20068;-67
